sensor_id;sensor_type;location;lat;lon;timestamp;pressure;altitude;pressure_sealevel;temperature;humidity
9855;BME280;4966;48.112;9.282;2023-12-07T00:00:15;94921.16;;;2.26;87.61
9855;BME280;4966;48.112;9.282;2023-12-07T00:02:40;94919.28;;;2.22;87.73
9855;BME280;4966;48.112;9.282;2023-12-07T00:05:06;94918.69;;;1.90;89.33
9855;BME280;4966;48.112;9.282;2023-12-07T00:07:31;94914.19;;;2.25;88.11
9855;BME280;4966;48.112;9.282;2023-12-07T00:09:56;94916.13;;;2.15;88.30
9855;BME280;4966;48.112;9.282;2023-12-07T00:12:22;94918.28;;;2.12;87.55
9855;BME280;4966;48.112;9.282;2023-12-07T00:14:47;94920.66;;;2.19;87.27
9855;BME280;4966;48.112;9.282;2023-12-07T00:17:12;94924.44;;;2.13;87.68
9855;BME280;4966;48.112;9.282;2023-12-07T00:19:38;94926.13;;;2.04;88.40
9855;BME280;4966;48.112;9.282;2023-12-07T00:22:04;94926.56;;;2.21;87.76
9855;BME280;4966;48.112;9.282;2023-12-07T00:24:30;94932.00;;;2.11;88.13
9855;BME280;4966;48.112;9.282;2023-12-07T00:26:55;94954.03;;;1.38;91.52
9855;BME280;4966;48.112;9.282;2023-12-07T00:29:21;94943.91;;;1.89;91.03
9855;BME280;4966;48.112;9.282;2023-12-07T00:31:46;94948.34;;;2.09;89.79
9855;BME280;4966;48.112;9.282;2023-12-07T00:34:12;94948.31;;;2.15;88.17
9855;BME280;4966;48.112;9.282;2023-12-07T00:36:37;94939.63;;;2.33;87.93
9855;BME280;4966;48.112;9.282;2023-12-07T00:39:04;94932.06;;;2.40;87.02
9855;BME280;4966;48.112;9.282;2023-12-07T00:41:29;94937.44;;;2.40;86.94
9855;BME280;4966;48.112;9.282;2023-12-07T00:43:55;94936.63;;;2.40;86.88
9855;BME280;4966;48.112;9.282;2023-12-07T00:46:20;94943.63;;;2.36;86.81
9855;BME280;4966;48.112;9.282;2023-12-07T00:48:45;94941.19;;;2.00;88.75
9855;BME280;4966;48.112;9.282;2023-12-07T00:51:10;94947.88;;;2.02;89.13
9855;BME280;4966;48.112;9.282;2023-12-07T00:53:36;94937.03;;;2.18;87.84
9855;BME280;4966;48.112;9.282;2023-12-07T00:56:03;94939.22;;;2.16;88.06
9855;BME280;4966;48.112;9.282;2023-12-07T00:58:29;94942.69;;;2.16;87.54
9855;BME280;4966;48.112;9.282;2023-12-07T01:00:54;94945.38;;;2.16;87.49
9855;BME280;4966;48.112;9.282;2023-12-07T01:03:19;94942.06;;;2.29;87.45
9855;BME280;4966;48.112;9.282;2023-12-07T01:05:45;94937.13;;;2.42;86.41
9855;BME280;4966;48.112;9.282;2023-12-07T01:08:10;94951.72;;;2.30;86.74
9855;BME280;4966;48.112;9.282;2023-12-07T01:10:36;94943.50;;;2.17;86.64
9855;BME280;4966;48.112;9.282;2023-12-07T01:13:01;94939.75;;;2.12;86.95
9855;BME280;4966;48.112;9.282;2023-12-07T01:15:27;94948.91;;;2.06;86.69
9855;BME280;4966;48.112;9.282;2023-12-07T01:17:52;94939.03;;;2.02;86.73
9855;BME280;4966;48.112;9.282;2023-12-07T01:20:17;94954.84;;;1.98;86.51
9855;BME280;4966;48.112;9.282;2023-12-07T01:22:43;94951.97;;;1.89;86.50
9855;BME280;4966;48.112;9.282;2023-12-07T01:25:08;94953.00;;;1.94;87.06
9855;BME280;4966;48.112;9.282;2023-12-07T01:27:34;94964.38;;;1.75;87.14
9855;BME280;4966;48.112;9.282;2023-12-07T01:29:59;94962.81;;;1.64;88.50
9855;BME280;4966;48.112;9.282;2023-12-07T01:32:25;94971.41;;;1.61;89.39
9855;BME280;4966;48.112;9.282;2023-12-07T01:34:50;94972.94;;;1.72;88.12
9855;BME280;4966;48.112;9.282;2023-12-07T01:37:15;94970.28;;;1.67;88.68
9855;BME280;4966;48.112;9.282;2023-12-07T01:39:44;94975.69;;;1.57;88.86
9855;BME280;4966;48.112;9.282;2023-12-07T01:42:09;94981.84;;;1.62;88.24
9855;BME280;4966;48.112;9.282;2023-12-07T01:44:37;94986.34;;;1.82;86.51
9855;BME280;4966;48.112;9.282;2023-12-07T01:47:02;94986.34;;;1.72;86.60
9855;BME280;4966;48.112;9.282;2023-12-07T01:49:28;94991.69;;;1.77;87.13
9855;BME280;4966;48.112;9.282;2023-12-07T01:51:54;94987.72;;;1.64;86.97
9855;BME280;4966;48.112;9.282;2023-12-07T01:54:19;94988.03;;;1.58;87.36
9855;BME280;4966;48.112;9.282;2023-12-07T01:56:45;94989.91;;;1.57;87.34
9855;BME280;4966;48.112;9.282;2023-12-07T01:59:11;94988.03;;;1.53;88.05
9855;BME280;4966;48.112;9.282;2023-12-07T02:01:36;94988.34;;;1.51;88.46
9855;BME280;4966;48.112;9.282;2023-12-07T02:04:02;95001.72;;;1.56;87.68
9855;BME280;4966;48.112;9.282;2023-12-07T02:06:27;94996.34;;;1.56;87.72
9855;BME280;4966;48.112;9.282;2023-12-07T02:08:53;95004.41;;;1.51;87.49
9855;BME280;4966;48.112;9.282;2023-12-07T02:11:19;94996.59;;;1.70;86.90
9855;BME280;4966;48.112;9.282;2023-12-07T02:13:44;94999.75;;;1.82;86.10
9855;BME280;4966;48.112;9.282;2023-12-07T02:16:23;94994.44;;;1.67;85.94
9855;BME280;4966;48.112;9.282;2023-12-07T02:19:02;94998.22;;;1.61;86.78
9855;BME280;4966;48.112;9.282;2023-12-07T02:21:47;95000.94;;;1.45;86.06
9855;BME280;4966;48.112;9.282;2023-12-07T02:24:20;95003.09;;;1.48;86.82
9855;BME280;4966;48.112;9.282;2023-12-07T02:26:46;94996.91;;;1.43;86.42
9855;BME280;4966;48.112;9.282;2023-12-07T02:29:12;94995.59;;;1.40;86.69
9855;BME280;4966;48.112;9.282;2023-12-07T02:31:37;94994.28;;;1.33;86.89
9855;BME280;4966;48.112;9.282;2023-12-07T02:34:03;94996.13;;;1.37;86.71
9855;BME280;4966;48.112;9.282;2023-12-07T02:36:29;94989.66;;;1.43;86.94
9855;BME280;4966;48.112;9.282;2023-12-07T02:38:58;94990.28;;;1.25;87.10
9855;BME280;4966;48.112;9.282;2023-12-07T02:41:24;94986.56;;;1.05;86.45
9855;BME280;4966;48.112;9.282;2023-12-07T02:43:51;94993.53;;;0.66;89.28
9855;BME280;4966;48.112;9.282;2023-12-07T02:46:17;94986.81;;;0.83;87.47
9855;BME280;4966;48.112;9.282;2023-12-07T02:48:43;94989.75;;;0.97;86.79
9855;BME280;4966;48.112;9.282;2023-12-07T02:51:08;94980.41;;;0.90;86.51
9855;BME280;4966;48.112;9.282;2023-12-07T02:53:34;94977.72;;;0.59;87.13
9855;BME280;4966;48.112;9.282;2023-12-07T02:56:00;94973.19;;;0.39;86.70
9855;BME280;4966;48.112;9.282;2023-12-07T02:58:25;94978.50;;;0.29;87.84
9855;BME280;4966;48.112;9.282;2023-12-07T03:00:50;94971.53;;;0.17;88.59
9855;BME280;4966;48.112;9.282;2023-12-07T03:03:16;94974.47;;;0.16;89.50
9855;BME280;4966;48.112;9.282;2023-12-07T03:05:41;94982.25;;;0.17;88.83
9855;BME280;4966;48.112;9.282;2023-12-07T03:08:06;94980.38;;;0.13;88.82
9855;BME280;4966;48.112;9.282;2023-12-07T03:10:31;94983.03;;;0.23;87.06
9855;BME280;4966;48.112;9.282;2023-12-07T03:12:57;94985.97;;;0.21;86.95
9855;BME280;4966;48.112;9.282;2023-12-07T03:15:22;94980.06;;;0.14;86.29
9855;BME280;4966;48.112;9.282;2023-12-07T03:17:49;94985.47;;;0.19;86.88
9855;BME280;4966;48.112;9.282;2023-12-07T03:20:14;94982.25;;;0.12;85.79
9855;BME280;4966;48.112;9.282;2023-12-07T03:22:40;94987.53;;;-0.03;85.34
9855;BME280;4966;48.112;9.282;2023-12-07T03:25:05;94987.75;;;-0.20;85.18
9855;BME280;4966;48.112;9.282;2023-12-07T03:27:31;94992.53;;;-0.32;85.44
9855;BME280;4966;48.112;9.282;2023-12-07T03:29:56;94996.75;;;-0.41;85.90
9855;BME280;4966;48.112;9.282;2023-12-07T03:32:21;94997.31;;;-0.39;86.95
9855;BME280;4966;48.112;9.282;2023-12-07T03:34:46;94996.28;;;-0.33;86.34
9855;BME280;4966;48.112;9.282;2023-12-07T03:37:12;95006.75;;;-0.22;85.87
9855;BME280;4966;48.112;9.282;2023-12-07T03:39:37;94992.53;;;-0.27;86.56
9855;BME280;4966;48.112;9.282;2023-12-07T03:42:03;94990.22;;;-0.03;86.74
9855;BME280;4966;48.112;9.282;2023-12-07T03:44:28;94995.28;;;-0.12;86.31
9855;BME280;4966;48.112;9.282;2023-12-07T03:46:54;95011.03;;;-0.10;85.91
9855;BME280;4966;48.112;9.282;2023-12-07T03:51:55;95001.97;;;-0.14;87.35
9855;BME280;4966;48.112;9.282;2023-12-07T03:54:20;95004.09;;;-0.11;87.55
9855;BME280;4966;48.112;9.282;2023-12-07T03:56:45;94998.22;;;-0.13;87.81
9855;BME280;4966;48.112;9.282;2023-12-07T04:06:59;95001.44;;;-0.11;87.04
9855;BME280;4966;48.112;9.282;2023-12-07T04:09:24;95010.47;;;-0.23;87.10
9855;BME280;4966;48.112;9.282;2023-12-07T04:11:50;95012.06;;;-0.27;87.13
9855;BME280;4966;48.112;9.282;2023-12-07T04:14:15;95014.72;;;-0.27;87.45
9855;BME280;4966;48.112;9.282;2023-12-07T04:16:40;95012.81;;;-0.36;87.25
9855;BME280;4966;48.112;9.282;2023-12-07T04:19:06;95021.13;;;-0.33;87.27
9855;BME280;4966;48.112;9.282;2023-12-07T04:21:31;95005.66;;;-0.26;87.12
9855;BME280;4966;48.112;9.282;2023-12-07T04:23:56;95003.75;;;-0.30;87.25
9855;BME280;4966;48.112;9.282;2023-12-07T04:26:23;95015.25;;;-0.30;87.19
9855;BME280;4966;48.112;9.282;2023-12-07T04:28:48;95017.88;;;-0.40;87.35
9855;BME280;4966;48.112;9.282;2023-12-07T04:31:13;95009.91;;;-0.30;87.10
9855;BME280;4966;48.112;9.282;2023-12-07T04:33:39;95012.81;;;-0.36;86.88
9855;BME280;4966;48.112;9.282;2023-12-07T04:36:05;95010.44;;;-0.28;86.81
9855;BME280;4966;48.112;9.282;2023-12-07T04:38:30;95023.03;;;-0.28;86.40
9855;BME280;4966;48.112;9.282;2023-12-07T04:43:32;95019.22;;;-0.37;86.05
9855;BME280;4966;48.112;9.282;2023-12-07T04:45:58;95024.56;;;-0.43;85.79
9855;BME280;4966;48.112;9.282;2023-12-07T04:48:24;95018.38;;;-0.48;85.70
9855;BME280;4966;48.112;9.282;2023-12-07T04:50:51;95021.75;;;-0.68;85.67
9855;BME280;4966;48.112;9.282;2023-12-07T04:53:16;95029.50;;;-0.67;85.88
9855;BME280;4966;48.112;9.282;2023-12-07T04:55:41;95028.41;;;-0.71;85.90
9855;BME280;4966;48.112;9.282;2023-12-07T04:58:12;95023.03;;;-0.76;85.66
9855;BME280;4966;48.112;9.282;2023-12-07T05:00:37;95017.34;;;-0.90;85.83
9855;BME280;4966;48.112;9.282;2023-12-07T05:03:02;95025.13;;;-0.83;85.35
9855;BME280;4966;48.112;9.282;2023-12-07T05:05:28;95013.09;;;-0.86;85.67
9855;BME280;4966;48.112;9.282;2023-12-07T05:07:53;95018.16;;;-0.84;85.87
9855;BME280;4966;48.112;9.282;2023-12-07T05:10:18;95021.16;;;-0.75;86.23
9855;BME280;4966;48.112;9.282;2023-12-07T05:12:44;95018.38;;;-0.48;84.94
9855;BME280;4966;48.112;9.282;2023-12-07T05:15:09;95018.13;;;-0.47;83.70
9855;BME280;4966;48.112;9.282;2023-12-07T05:17:35;95016.47;;;-0.53;84.06
9855;BME280;4966;48.112;9.282;2023-12-07T05:20:00;95016.53;;;-0.48;84.27
9855;BME280;4966;48.112;9.282;2023-12-07T05:22:27;95017.59;;;-0.38;83.72
9855;BME280;4966;48.112;9.282;2023-12-07T05:24:52;95022.69;;;-0.42;83.00
9855;BME280;4966;48.112;9.282;2023-12-07T05:27:18;95016.38;;;-0.73;83.76
9855;BME280;4966;48.112;9.282;2023-12-07T05:29:43;95016.81;;;-0.87;83.76
9855;BME280;4966;48.112;9.282;2023-12-07T05:32:08;95009.50;;;-1.07;84.23
9855;BME280;4966;48.112;9.282;2023-12-07T05:34:34;95017.81;;;-1.03;84.46
9855;BME280;4966;48.112;9.282;2023-12-07T05:37:01;95026.84;;;-1.04;84.77
9855;BME280;4966;48.112;9.282;2023-12-07T05:39:26;95018.59;;;-1.02;84.73
9855;BME280;4966;48.112;9.282;2023-12-07T05:41:51;95021.88;;;-0.90;84.75
9855;BME280;4966;48.112;9.282;2023-12-07T05:44:17;95016.63;;;-0.75;83.57
9855;BME280;4966;48.112;9.282;2023-12-07T05:46:47;95015.44;;;-0.94;83.65
9855;BME280;4966;48.112;9.282;2023-12-07T05:49:12;95023.91;;;-1.08;83.69
9855;BME280;4966;48.112;9.282;2023-12-07T05:51:38;95020.94;;;-1.11;83.83
9855;BME280;4966;48.112;9.282;2023-12-07T05:54:03;95027.22;;;-1.27;83.94
9855;BME280;4966;48.112;9.282;2023-12-07T05:56:29;95014.28;;;-1.09;83.73
9855;BME280;4966;48.112;9.282;2023-12-07T05:58:54;95024.38;;;-1.16;83.58
9855;BME280;4966;48.112;9.282;2023-12-07T06:01:20;95016.53;;;-1.27;83.62
9855;BME280;4966;48.112;9.282;2023-12-07T06:03:45;95021.88;;;-1.27;83.84
9855;BME280;4966;48.112;9.282;2023-12-07T06:06:11;95029.22;;;-1.45;84.07
9855;BME280;4966;48.112;9.282;2023-12-07T06:08:40;95021.06;;;-1.28;83.40
9855;BME280;4966;48.112;9.282;2023-12-07T06:11:05;95021.00;;;-1.38;82.92
9855;BME280;4966;48.112;9.282;2023-12-07T06:13:31;95021.19;;;-1.77;83.66
9855;BME280;4966;48.112;9.282;2023-12-07T06:15:56;95013.78;;;-1.97;84.03
9855;BME280;4966;48.112;9.282;2023-12-07T06:18:21;95007.78;;;-2.09;84.16
9855;BME280;4966;48.112;9.282;2023-12-07T06:20:47;95015.53;;;-2.30;84.61
9855;BME280;4966;48.112;9.282;2023-12-07T06:23:12;95000.09;;;-2.06;83.99
9855;BME280;4966;48.112;9.282;2023-12-07T06:25:40;95003.38;;;-2.21;83.72
9855;BME280;4966;48.112;9.282;2023-12-07T06:28:06;95010.69;;;-2.33;85.22
9855;BME280;4966;48.112;9.282;2023-12-07T06:30:32;95005.25;;;-2.43;85.46
9855;BME280;4966;48.112;9.282;2023-12-07T06:32:57;94995.94;;;-2.19;84.19
9855;BME280;4966;48.112;9.282;2023-12-07T06:35:23;95005.06;;;-2.15;83.78
9855;BME280;4966;48.112;9.282;2023-12-07T06:37:48;95006.38;;;-2.17;83.83
9855;BME280;4966;48.112;9.282;2023-12-07T06:40:13;95006.22;;;-2.05;83.03
9855;BME280;4966;48.112;9.282;2023-12-07T06:42:39;95008.44;;;-1.97;82.27
9855;BME280;4966;48.112;9.282;2023-12-07T06:45:05;95004.22;;;-1.93;81.51
9855;BME280;4966;48.112;9.282;2023-12-07T06:47:30;95007.72;;;-2.15;80.78
9855;BME280;4966;48.112;9.282;2023-12-07T06:49:56;95009.44;;;-2.03;78.79
9855;BME280;4966;48.112;9.282;2023-12-07T06:52:22;95017.78;;;-2.22;79.18
9855;BME280;4966;48.112;9.282;2023-12-07T06:54:47;95020.88;;;-2.52;80.24
9855;BME280;4966;48.112;9.282;2023-12-07T06:57:12;95025.03;;;-2.39;79.80
9855;BME280;4966;48.112;9.282;2023-12-07T06:59:38;95024.25;;;-2.57;79.96
9855;BME280;4966;48.112;9.282;2023-12-07T07:02:03;95025.31;;;-2.80;80.87
9855;BME280;4966;48.112;9.282;2023-12-07T07:04:29;95034.25;;;-2.86;82.02
9855;BME280;4966;48.112;9.282;2023-12-07T07:06:55;95025.00;;;-2.61;81.96
9855;BME280;4966;48.112;9.282;2023-12-07T07:09:20;95030.09;;;-2.60;82.12
9855;BME280;4966;48.112;9.282;2023-12-07T07:11:49;95026.88;;;-2.40;81.70
9855;BME280;4966;48.112;9.282;2023-12-07T07:14:15;95025.88;;;-2.33;80.42
9855;BME280;4966;48.112;9.282;2023-12-07T07:16:41;95029.22;;;-2.65;80.69
9855;BME280;4966;48.112;9.282;2023-12-07T07:19:06;95025.34;;;-2.96;81.76
9855;BME280;4966;48.112;9.282;2023-12-07T07:21:31;95023.56;;;-2.91;82.11
9855;BME280;4966;48.112;9.282;2023-12-07T07:23:57;95028.81;;;-2.96;82.58
9855;BME280;4966;48.112;9.282;2023-12-07T07:26:22;95031.25;;;-2.72;81.59
9855;BME280;4966;48.112;9.282;2023-12-07T07:28:52;95038.00;;;-2.87;81.70
9855;BME280;4966;48.112;9.282;2023-12-07T07:31:18;95029.75;;;-3.02;82.24
9855;BME280;4966;48.112;9.282;2023-12-07T07:33:44;95028.00;;;-2.96;82.32
9855;BME280;4966;48.112;9.282;2023-12-07T07:36:09;95028.66;;;-2.67;81.06
9855;BME280;4966;48.112;9.282;2023-12-07T07:38:36;95036.59;;;-2.50;79.81
9855;BME280;4966;48.112;9.282;2023-12-07T07:41:01;95028.78;;;-2.57;79.54
9855;BME280;4966;48.112;9.282;2023-12-07T07:43:27;95030.88;;;-2.59;79.29
9855;BME280;4966;48.112;9.282;2023-12-07T07:45:52;95036.84;;;-2.52;78.50
9855;BME280;4966;48.112;9.282;2023-12-07T07:48:18;95049.34;;;-2.74;79.02
9855;BME280;4966;48.112;9.282;2023-12-07T07:50:43;95040.97;;;-3.00;80.02
9855;BME280;4966;48.112;9.282;2023-12-07T07:53:08;95043.22;;;-2.75;80.07
9855;BME280;4966;48.112;9.282;2023-12-07T07:55:34;95044.78;;;-2.96;79.70
9855;BME280;4966;48.112;9.282;2023-12-07T07:57:59;95051.88;;;-3.02;80.75
9855;BME280;4966;48.112;9.282;2023-12-07T08:00:24;95049.94;;;-2.89;81.30
9855;BME280;4966;48.112;9.282;2023-12-07T08:02:51;95047.72;;;-2.75;81.70
9855;BME280;4966;48.112;9.282;2023-12-07T08:05:16;95041.66;;;-2.71;82.16
9855;BME280;4966;48.112;9.282;2023-12-07T08:07:42;95063.47;;;-2.52;81.76
9855;BME280;4966;48.112;9.282;2023-12-07T08:10:07;95048.28;;;-2.34;81.10
9855;BME280;4966;48.112;9.282;2023-12-07T08:12:33;95041.72;;;-2.00;80.76
9855;BME280;4966;48.112;9.282;2023-12-07T08:14:59;95036.06;;;-1.81;78.96
9855;BME280;4966;48.112;9.282;2023-12-07T08:17:24;95030.00;;;-1.77;77.97
9855;BME280;4966;48.112;9.282;2023-12-07T08:19:51;95026.53;;;-1.77;78.84
9855;BME280;4966;48.112;9.282;2023-12-07T08:22:17;95025.34;;;-1.86;78.77
9855;BME280;4966;48.112;9.282;2023-12-07T08:24:42;95014.88;;;-1.66;79.53
9855;BME280;4966;48.112;9.282;2023-12-07T08:27:07;95018.72;;;-1.52;79.35
9855;BME280;4966;48.112;9.282;2023-12-07T08:29:33;95017.69;;;-1.51;79.69
9855;BME280;4966;48.112;9.282;2023-12-07T08:31:59;95017.81;;;-1.35;79.52
9855;BME280;4966;48.112;9.282;2023-12-07T08:34:25;95017.47;;;-1.12;79.30
9855;BME280;4966;48.112;9.282;2023-12-07T08:36:50;95012.16;;;-1.07;79.77
9855;BME280;4966;48.112;9.282;2023-12-07T08:39:16;95009.31;;;-0.90;79.53
9855;BME280;4966;48.112;9.282;2023-12-07T08:41:41;95001.41;;;-0.74;79.48
9855;BME280;4966;48.112;9.282;2023-12-07T08:44:06;94994.22;;;-0.69;78.34
9855;BME280;4966;48.112;9.282;2023-12-07T08:46:32;94996.03;;;-0.79;78.03
9855;BME280;4966;48.112;9.282;2023-12-07T08:48:57;95005.47;;;-0.67;78.36
9855;BME280;4966;48.112;9.282;2023-12-07T08:51:23;94998.25;;;-0.66;78.84
9855;BME280;4966;48.112;9.282;2023-12-07T08:53:49;94995.94;;;-0.52;78.92
9855;BME280;4966;48.112;9.282;2023-12-07T08:56:14;94998.88;;;-0.44;79.00
9855;BME280;4966;48.112;9.282;2023-12-07T08:58:40;95007.19;;;-0.45;78.99
9855;BME280;4966;48.112;9.282;2023-12-07T09:01:06;95008.59;;;-0.27;79.53
9855;BME280;4966;48.112;9.282;2023-12-07T09:03:31;95002.47;;;-0.12;79.47
9855;BME280;4966;48.112;9.282;2023-12-07T09:05:58;95005.22;;;-0.02;78.63
9855;BME280;4966;48.112;9.282;2023-12-07T09:08:24;95013.78;;;0.05;78.53
9855;BME280;4966;48.112;9.282;2023-12-07T09:10:49;95012.72;;;0.16;78.65
9855;BME280;4966;48.112;9.282;2023-12-07T09:13:16;95015.19;;;0.38;78.21
9855;BME280;4966;48.112;9.282;2023-12-07T09:15:42;95023.19;;;0.33;78.08
9855;BME280;4966;48.112;9.282;2023-12-07T09:18:07;95027.16;;;0.10;79.28
9855;BME280;4966;48.112;9.282;2023-12-07T09:20:33;95026.94;;;0.22;79.37
9855;BME280;4966;48.112;9.282;2023-12-07T09:22:58;95010.66;;;0.49;79.06
9855;BME280;4966;48.112;9.282;2023-12-07T09:25:24;95004.75;;;0.57;78.28
9855;BME280;4966;48.112;9.282;2023-12-07T09:27:53;94999.69;;;0.66;79.06
9855;BME280;4966;48.112;9.282;2023-12-07T09:30:18;94995.66;;;0.58;78.91
9855;BME280;4966;48.112;9.282;2023-12-07T09:32:44;94995.13;;;0.82;77.79
9855;BME280;4966;48.112;9.282;2023-12-07T09:35:10;95003.97;;;1.08;78.38
9855;BME280;4966;48.112;9.282;2023-12-07T09:37:45;94990.31;;;0.99;78.01
9855;BME280;4966;48.112;9.282;2023-12-07T09:40:17;94993.78;;;1.15;78.43
9855;BME280;4966;48.112;9.282;2023-12-07T09:42:43;95018.38;;;1.38;78.11
9855;BME280;4966;48.112;9.282;2023-12-07T09:45:09;95000.91;;;1.56;77.63
9855;BME280;4966;48.112;9.282;2023-12-07T09:47:37;95004.88;;;1.74;76.69
9855;BME280;4966;48.112;9.282;2023-12-07T09:50:05;94999.75;;;1.77;76.76
9855;BME280;4966;48.112;9.282;2023-12-07T09:52:31;94990.59;;;1.83;76.94
9855;BME280;4966;48.112;9.282;2023-12-07T09:54:56;94978.81;;;0.94;78.71
9855;BME280;4966;48.112;9.282;2023-12-07T09:57:22;94976.34;;;1.23;79.40
9855;BME280;4966;48.112;9.282;2023-12-07T09:59:48;94978.34;;;1.62;78.38
9855;BME280;4966;48.112;9.282;2023-12-07T10:02:13;94975.31;;;1.84;77.61
9855;BME280;4966;48.112;9.282;2023-12-07T10:04:39;94967.19;;;2.04;77.24
9855;BME280;4966;48.112;9.282;2023-12-07T10:07:05;94958.25;;;2.14;76.33
9855;BME280;4966;48.112;9.282;2023-12-07T10:09:37;94951.47;;;1.82;77.28
9855;BME280;4966;48.112;9.282;2023-12-07T10:12:04;94962.34;;;2.06;76.96
9855;BME280;4966;48.112;9.282;2023-12-07T10:14:30;94945.19;;;2.02;77.68
9855;BME280;4966;48.112;9.282;2023-12-07T10:16:55;94941.03;;;2.20;77.50
9855;BME280;4966;48.112;9.282;2023-12-07T10:19:22;94945.00;;;2.33;76.87
9855;BME280;4966;48.112;9.282;2023-12-07T10:21:51;94944.69;;;2.40;76.78
9855;BME280;4966;48.112;9.282;2023-12-07T10:24:17;94930.91;;;2.46;76.77
9855;BME280;4966;48.112;9.282;2023-12-07T10:26:45;94937.56;;;2.59;76.96
9855;BME280;4966;48.112;9.282;2023-12-07T10:29:11;94937.22;;;2.66;76.51
9855;BME280;4966;48.112;9.282;2023-12-07T10:31:37;94935.53;;;2.41;74.72
9855;BME280;4966;48.112;9.282;2023-12-07T10:34:04;94938.03;;;2.66;74.65
9855;BME280;4966;48.112;9.282;2023-12-07T10:36:29;94929.94;;;2.71;74.20
9855;BME280;4966;48.112;9.282;2023-12-07T10:38:55;94936.34;;;2.75;74.30
9855;BME280;4966;48.112;9.282;2023-12-07T10:41:21;94924.97;;;2.54;73.96
9855;BME280;4966;48.112;9.282;2023-12-07T10:43:54;94931.88;;;2.61;73.25
9855;BME280;4966;48.112;9.282;2023-12-07T10:46:22;94918.34;;;2.76;72.82
9855;BME280;4966;48.112;9.282;2023-12-07T10:48:48;94914.13;;;2.94;71.91
9855;BME280;4966;48.112;9.282;2023-12-07T10:51:41;94914.06;;;2.99;70.70
9855;BME280;4966;48.112;9.282;2023-12-07T10:54:07;94906.72;;;3.10;69.80
9855;BME280;4966;48.112;9.282;2023-12-07T10:56:44;94892.81;;;3.27;68.92
9855;BME280;4966;48.112;9.282;2023-12-07T10:59:10;94894.72;;;3.26;69.75
9855;BME280;4966;48.112;9.282;2023-12-07T11:01:40;94902.03;;;3.20;71.24
9855;BME280;4966;48.112;9.282;2023-12-07T11:04:09;94900.84;;;3.32;70.27
9855;BME280;4966;48.112;9.282;2023-12-07T11:06:36;94885.09;;;3.44;69.56
9855;BME280;4966;48.112;9.282;2023-12-07T11:09:04;94886.78;;;3.40;70.73
9855;BME280;4966;48.112;9.282;2023-12-07T11:11:42;94885.22;;;3.34;69.10
9855;BME280;4966;48.112;9.282;2023-12-07T11:14:10;94881.25;;;3.50;67.09
9855;BME280;4966;48.112;9.282;2023-12-07T11:16:41;94865.66;;;3.52;67.78
9855;BME280;4966;48.112;9.282;2023-12-07T11:21:50;94867.03;;;3.69;67.68
9855;BME280;4966;48.112;9.282;2023-12-07T11:24:16;94862.03;;;3.81;67.06
9855;BME280;4966;48.112;9.282;2023-12-07T11:26:42;94858.28;;;3.58;67.48
9855;BME280;4966;48.112;9.282;2023-12-07T11:29:08;94851.41;;;3.90;66.58
9855;BME280;4966;48.112;9.282;2023-12-07T11:31:33;94851.41;;;4.09;65.79
9855;BME280;4966;48.112;9.282;2023-12-07T11:34:05;94854.06;;;4.28;65.48
9855;BME280;4966;48.112;9.282;2023-12-07T11:36:31;94838.94;;;4.32;64.65
9855;BME280;4966;48.112;9.282;2023-12-07T11:41:54;94832.69;;;4.50;66.86
9855;BME280;4966;48.112;9.282;2023-12-07T11:44:37;94827.41;;;4.59;66.33
9855;BME280;4966;48.112;9.282;2023-12-07T11:47:03;94828.84;;;4.70;65.33
9855;BME280;4966;48.112;9.282;2023-12-07T11:49:30;94837.56;;;4.95;64.54
9855;BME280;4966;48.112;9.282;2023-12-07T11:51:56;94838.97;;;5.33;62.37
9855;BME280;4966;48.112;9.282;2023-12-07T11:54:25;94826.16;;;5.53;60.86
9855;BME280;4966;48.112;9.282;2023-12-07T11:56:54;94824.88;;;6.01;60.38
9855;BME280;4966;48.112;9.282;2023-12-07T11:59:19;94825.88;;;6.27;59.19
9855;BME280;4966;48.112;9.282;2023-12-07T12:01:48;94822.25;;;6.54;58.95
9855;BME280;4966;48.112;9.282;2023-12-07T12:04:17;94813.41;;;6.63;58.74
9855;BME280;4966;48.112;9.282;2023-12-07T12:06:44;94806.84;;;6.86;57.57
9855;BME280;4966;48.112;9.282;2023-12-07T12:09:12;94806.41;;;6.39;56.63
9855;BME280;4966;48.112;9.282;2023-12-07T12:11:38;94800.88;;;6.67;56.65
9855;BME280;4966;48.112;9.282;2023-12-07T12:14:08;94805.63;;;6.92;56.72
9855;BME280;4966;48.112;9.282;2023-12-07T12:16:34;94799.16;;;7.11;55.78
9855;BME280;4966;48.112;9.282;2023-12-07T12:18:59;94800.66;;;7.26;55.26
9855;BME280;4966;48.112;9.282;2023-12-07T12:21:25;94788.25;;;7.33;54.61
9855;BME280;4966;48.112;9.282;2023-12-07T12:23:50;94793.13;;;6.74;56.83
9855;BME280;4966;48.112;9.282;2023-12-07T12:26:16;94795.59;;;6.93;53.84
9855;BME280;4966;48.112;9.282;2023-12-07T12:28:42;94779.81;;;6.55;54.90
9855;BME280;4966;48.112;9.282;2023-12-07T12:31:10;94773.75;;;6.80;53.17
9855;BME280;4966;48.112;9.282;2023-12-07T12:33:37;94775.75;;;6.66;52.65
9855;BME280;4966;48.112;9.282;2023-12-07T12:36:04;94761.13;;;6.67;52.92
9855;BME280;4966;48.112;9.282;2023-12-07T12:38:31;94752.78;;;6.24;54.71
9855;BME280;4966;48.112;9.282;2023-12-07T12:40:57;94745.66;;;6.28;56.27
9855;BME280;4966;48.112;9.282;2023-12-07T12:43:22;94738.34;;;6.28;56.71
9855;BME280;4966;48.112;9.282;2023-12-07T12:45:48;94729.25;;;6.24;55.78
9855;BME280;4966;48.112;9.282;2023-12-07T12:48:13;94732.03;;;6.42;56.41
9855;BME280;4966;48.112;9.282;2023-12-07T12:50:42;94729.44;;;6.59;53.78
9855;BME280;4966;48.112;9.282;2023-12-07T12:53:09;94741.44;;;6.75;54.12
9855;BME280;4966;48.112;9.282;2023-12-07T12:55:41;94731.09;;;6.37;55.68
9855;BME280;4966;48.112;9.282;2023-12-07T12:58:09;94730.94;;;6.43;53.78
9855;BME280;4966;48.112;9.282;2023-12-07T13:00:37;94728.81;;;6.62;53.43
9855;BME280;4966;48.112;9.282;2023-12-07T13:03:04;94729.88;;;6.52;54.48
9855;BME280;4966;48.112;9.282;2023-12-07T13:05:30;94728.09;;;6.48;54.12
9855;BME280;4966;48.112;9.282;2023-12-07T13:07:57;94724.78;;;6.20;54.00
9855;BME280;4966;48.112;9.282;2023-12-07T13:10:24;94723.91;;;6.33;56.21
9855;BME280;4966;48.112;9.282;2023-12-07T13:12:49;94727.56;;;5.69;54.45
9855;BME280;4966;48.112;9.282;2023-12-07T13:15:14;94716.50;;;5.35;57.23
9855;BME280;4966;48.112;9.282;2023-12-07T13:17:41;94713.38;;;5.78;54.12
9855;BME280;4966;48.112;9.282;2023-12-07T13:20:07;94717.31;;;5.94;55.67
9855;BME280;4966;48.112;9.282;2023-12-07T13:22:38;94714.88;;;6.15;54.66
9855;BME280;4966;48.112;9.282;2023-12-07T13:25:04;94719.00;;;6.12;55.15
9855;BME280;4966;48.112;9.282;2023-12-07T13:27:30;94729.69;;;6.17;54.53
9855;BME280;4966;48.112;9.282;2023-12-07T13:29:55;94729.53;;;6.45;54.59
9855;BME280;4966;48.112;9.282;2023-12-07T13:32:20;94731.47;;;6.22;52.78
9855;BME280;4966;48.112;9.282;2023-12-07T13:34:46;94724.97;;;6.23;54.05
9855;BME280;4966;48.112;9.282;2023-12-07T13:37:11;94729.88;;;6.52;52.66
9855;BME280;4966;48.112;9.282;2023-12-07T13:39:36;94726.31;;;6.74;53.02